createdAt,value
2018-12-19T00:00:36.653Z,5.64
2018-12-19T00:01:36.644Z,5.67
2018-12-19T00:02:36.653Z,5.67
2018-12-19T00:03:36.679Z,5.60
2018-12-19T00:04:36.674Z,5.67
2018-12-19T00:05:36.686Z,5.67
2018-12-19T00:06:36.703Z,5.63
2018-12-19T00:07:36.710Z,5.65
2018-12-19T00:08:37.019Z,5.74
2018-12-19T00:10:36.847Z,5.67
2018-12-19T00:11:36.751Z,5.63
2018-12-19T00:12:36.760Z,5.60
2018-12-19T00:13:36.769Z,5.64
2018-12-19T00:14:36.788Z,5.57
2018-12-19T00:15:36.792Z,5.63
2018-12-19T00:16:36.804Z,5.60
2018-12-19T00:17:36.813Z,5.64
2018-12-19T00:18:36.831Z,5.61
2018-12-19T00:19:36.840Z,5.60
2018-12-19T00:20:36.842Z,5.60
2018-12-19T00:21:36.857Z,5.54
2018-12-19T00:22:36.876Z,5.60
2018-12-19T00:23:36.875Z,5.63
2018-12-19T00:24:36.885Z,5.61
2018-12-19T00:25:36.895Z,5.60
2018-12-19T00:26:36.908Z,5.63
2018-12-19T00:27:36.917Z,5.60
2018-12-19T00:28:36.926Z,5.63
2018-12-19T00:29:36.935Z,5.61
2018-12-19T00:30:36.957Z,5.64
2018-12-19T00:31:36.957Z,5.71
2018-12-19T00:32:36.973Z,5.63
2018-12-19T00:33:36.985Z,5.65
2018-12-19T00:34:36.989Z,5.64
2018-12-19T00:35:37.001Z,5.65
2018-12-19T00:36:37.023Z,5.64
2018-12-19T00:37:37.061Z,5.71
2018-12-19T00:38:37.031Z,5.65
2018-12-19T00:39:37.053Z,5.68
2018-12-19T00:40:37.215Z,5.74
2018-12-19T00:41:37.059Z,5.67
2018-12-19T00:42:37.074Z,5.76
2018-12-19T00:43:37.081Z,5.79
2018-12-19T00:44:37.137Z,5.67
2018-12-19T00:45:37.208Z,5.75
2018-12-19T00:46:37.114Z,5.72
2018-12-19T00:47:37.122Z,5.72
2018-12-19T00:48:37.137Z,5.74
2018-12-19T00:49:37.145Z,5.71
2018-12-19T00:50:37.155Z,5.72
2018-12-19T00:51:37.166Z,5.74
2018-12-19T00:52:37.179Z,5.76
2018-12-19T00:53:37.187Z,5.76
2018-12-19T00:54:37.196Z,5.76
2018-12-19T00:55:37.214Z,5.72
2018-12-19T00:56:37.221Z,5.75
2018-12-19T00:57:37.251Z,5.76
2018-12-19T00:58:37.253Z,5.72
2018-12-19T00:59:37.264Z,5.78
2018-12-19T01:00:37.259Z,5.74
2018-12-19T01:01:37.270Z,5.78
2018-12-19T01:02:37.282Z,5.75
2018-12-19T01:03:37.300Z,5.74
2018-12-19T01:04:37.319Z,5.72
2018-12-19T01:05:37.312Z,5.75
2018-12-19T01:06:37.332Z,5.83
2018-12-19T01:07:37.336Z,5.75
2018-12-19T01:08:37.355Z,5.91
2018-12-19T01:09:37.534Z,5.79
2018-12-19T01:10:37.396Z,5.83
2018-12-19T01:11:37.402Z,5.86
2018-12-19T01:12:37.384Z,5.86
2018-12-19T01:13:37.400Z,5.85
2018-12-19T01:14:37.547Z,5.83
2018-12-19T01:15:37.426Z,5.94
2018-12-19T01:16:37.435Z,5.96
2018-12-19T01:17:37.448Z,5.83
2018-12-19T01:18:37.462Z,5.86
2018-12-19T01:19:37.465Z,5.91
2018-12-19T01:20:37.469Z,5.97
2018-12-19T01:21:37.488Z,5.97
2018-12-19T01:22:37.496Z,5.99
2018-12-19T01:23:37.500Z,5.94
2018-12-19T01:24:37.517Z,5.99
2018-12-19T01:25:37.556Z,5.93
2018-12-19T01:26:37.547Z,5.97
2018-12-19T01:27:37.579Z,5.96
2018-12-19T01:28:37.678Z,5.97
2018-12-19T01:29:37.566Z,5.93
2018-12-19T01:30:37.575Z,5.93
2018-12-19T01:31:37.588Z,5.93
2018-12-19T01:32:37.601Z,5.99
2018-12-19T01:33:37.605Z,6.03
2018-12-19T01:34:37.615Z,6.01
2018-12-19T01:35:37.630Z,6.11
2018-12-19T01:36:37.650Z,6.03
2018-12-19T01:37:37.646Z,5.99
2018-12-19T01:38:37.663Z,6.00
2018-12-19T01:39:37.703Z,5.93
2018-12-19T01:40:37.716Z,5.94
2018-12-19T01:41:37.704Z,5.96
2018-12-19T01:42:37.805Z,5.91
2018-12-19T01:43:37.715Z,5.96
2018-12-19T01:44:37.759Z,5.96
2018-12-19T01:45:37.836Z,5.97
2018-12-19T01:46:37.745Z,5.99
2018-12-19T01:47:37.756Z,6.01
2018-12-19T01:48:37.768Z,5.93
2018-12-19T01:49:37.807Z,5.94
2018-12-19T01:50:37.787Z,5.96
2018-12-19T01:51:37.797Z,6.04
2018-12-19T01:52:37.808Z,6.08
2018-12-19T01:53:37.817Z,6.11
2018-12-19T01:54:37.840Z,6.11
2018-12-19T01:55:37.837Z,6.06
2018-12-19T01:56:37.846Z,6.06
2018-12-19T01:57:37.861Z,6.04
2018-12-19T01:58:37.886Z,6.03
2018-12-19T01:59:37.881Z,6.12
2018-12-19T02:00:37.930Z,6.11
2018-12-19T02:01:37.906Z,6.09
2018-12-19T02:02:38.117Z,6.14
2018-12-19T02:03:37.926Z,6.14
2018-12-19T02:04:37.941Z,6.19
2018-12-19T02:05:37.942Z,6.21
2018-12-19T02:06:37.957Z,6.21
2018-12-19T02:07:37.963Z,6.21
2018-12-19T02:08:37.973Z,6.18
2018-12-19T02:09:37.993Z,6.11
2018-12-19T02:10:38.028Z,6.17
2018-12-19T02:11:38.023Z,6.18
2018-12-19T02:12:38.023Z,6.14
2018-12-19T02:13:38.052Z,6.22
2018-12-19T02:14:38.037Z,6.14
2018-12-19T02:15:38.048Z,6.30
2018-12-19T02:16:38.062Z,6.25
2018-12-19T02:17:38.097Z,6.27
2018-12-19T02:18:38.086Z,6.37
2018-12-19T02:19:38.090Z,6.40
2018-12-19T02:20:38.122Z,6.33
2018-12-19T02:21:38.115Z,6.22
2018-12-19T02:22:38.125Z,6.25
2018-12-19T02:23:38.145Z,6.27
2018-12-19T02:24:38.146Z,6.30
2018-12-19T02:25:38.162Z,6.34
2018-12-19T02:26:38.164Z,6.40
2018-12-19T02:27:38.196Z,6.38
2018-12-19T02:28:38.188Z,6.37
2018-12-19T02:29:38.199Z,6.33
2018-12-19T02:30:38.216Z,6.37
2018-12-19T02:31:38.220Z,6.36
2018-12-19T02:32:38.227Z,6.27
2018-12-19T02:33:38.243Z,6.33
2018-12-19T02:34:38.266Z,6.40
2018-12-19T02:35:38.282Z,6.43
2018-12-19T02:36:38.372Z,6.46
2018-12-19T02:37:38.303Z,6.41
2018-12-19T02:38:38.290Z,6.41
2018-12-19T02:39:38.302Z,6.40
2018-12-19T02:40:38.312Z,6.38
2018-12-19T02:41:38.339Z,6.46
2018-12-19T02:42:38.333Z,6.48
2018-12-19T02:43:38.440Z,6.41
2018-12-19T02:44:38.404Z,6.46
2018-12-19T02:45:38.386Z,6.46
2018-12-19T02:46:38.403Z,6.55
2018-12-19T02:47:38.391Z,6.46
2018-12-19T02:48:38.410Z,6.46
2018-12-19T02:49:38.411Z,6.55
2018-12-19T02:50:38.424Z,6.54
2018-12-19T02:51:38.437Z,6.49
2018-12-19T02:52:38.486Z,6.46
2018-12-19T02:53:38.470Z,6.46
2018-12-19T02:54:38.490Z,6.54
2018-12-19T02:55:38.504Z,6.44
2018-12-19T02:56:38.490Z,6.56
2018-12-19T02:57:38.494Z,6.61
2018-12-19T02:58:38.505Z,6.49
2018-12-19T02:59:38.511Z,6.59
2018-12-19T03:00:38.517Z,6.55
2018-12-19T03:01:38.530Z,6.56
2018-12-19T03:02:38.544Z,6.55
2018-12-19T03:03:38.556Z,6.69
2018-12-19T03:04:38.575Z,6.64
2018-12-19T03:05:38.575Z,6.66
2018-12-19T03:06:38.587Z,6.69
2018-12-19T03:07:38.594Z,6.69
2018-12-19T03:08:38.607Z,6.73
2018-12-19T03:09:42.894Z,6.81
2018-12-19T03:10:38.640Z,6.73
2018-12-19T03:11:38.646Z,6.77
2018-12-19T03:13:38.674Z,6.84
2018-12-19T03:14:38.671Z,6.79
2018-12-19T03:15:38.785Z,6.89
2018-12-19T03:16:38.691Z,6.92
2018-12-19T03:17:38.705Z,6.89
2018-12-19T03:18:38.715Z,6.89
2018-12-19T03:19:38.730Z,7.03
2018-12-19T03:20:38.737Z,7.02
2018-12-19T03:21:38.744Z,7.06
2018-12-19T03:22:39.149Z,7.02
2018-12-19T03:23:38.849Z,7.05
2018-12-19T03:24:38.784Z,7.12
2018-12-19T03:25:38.795Z,7.15
2018-12-19T03:26:38.818Z,7.17
2018-12-19T03:27:38.813Z,7.20
2018-12-19T03:28:38.827Z,7.17
2018-12-19T03:29:38.834Z,7.15
2018-12-19T03:30:38.847Z,7.24
2018-12-19T03:31:39.049Z,7.25
2018-12-19T03:32:38.867Z,7.24
2018-12-19T03:33:38.901Z,7.17
2018-12-19T03:34:38.896Z,7.32
2018-12-19T03:35:38.899Z,7.34
2018-12-19T03:36:38.913Z,7.35
2018-12-19T03:37:38.922Z,7.50
2018-12-19T03:38:38.932Z,7.46
2018-12-19T03:39:38.949Z,7.49
2018-12-19T03:40:38.955Z,7.50
2018-12-19T03:41:38.969Z,7.48
2018-12-19T03:42:38.977Z,7.46
2018-12-19T03:43:38.994Z,7.48
2018-12-19T03:44:39.000Z,7.50
2018-12-19T03:45:39.008Z,7.55
2018-12-19T03:46:39.023Z,7.52
2018-12-19T03:47:39.034Z,7.52
2018-12-19T03:48:39.090Z,7.61
2018-12-19T03:49:39.051Z,7.48
2018-12-19T03:50:39.063Z,7.53
2018-12-19T03:51:39.080Z,7.43
2018-12-19T03:52:39.095Z,7.49
2018-12-19T03:53:39.105Z,7.55
2018-12-19T03:54:39.115Z,7.57
2018-12-19T03:55:39.119Z,7.45
2018-12-19T03:56:39.161Z,7.46
2018-12-19T03:57:39.140Z,7.40
2018-12-19T03:58:39.164Z,7.49
2018-12-19T03:59:39.160Z,7.46
2018-12-19T04:00:39.175Z,7.46
2018-12-19T04:01:39.199Z,7.53
2018-12-19T04:02:39.205Z,7.48
2018-12-19T04:03:39.206Z,7.52
2018-12-19T04:04:39.217Z,7.46
2018-12-19T04:05:39.537Z,7.46
2018-12-19T04:06:39.264Z,7.45
2018-12-19T04:07:39.254Z,7.48
2018-12-19T04:08:39.301Z,7.46
2018-12-19T04:09:39.271Z,7.45
2018-12-19T04:10:39.289Z,7.45
2018-12-19T04:11:39.296Z,7.46
2018-12-19T04:12:39.309Z,7.31
2018-12-19T04:13:39.320Z,7.35
2018-12-19T04:14:39.349Z,7.31
2018-12-19T04:15:39.341Z,7.32
2018-12-19T04:16:39.358Z,7.31
2018-12-19T04:17:39.362Z,7.32
2018-12-19T04:18:39.392Z,7.32
2018-12-19T04:19:39.387Z,7.30
2018-12-19T04:20:39.410Z,7.34
2018-12-19T04:21:39.407Z,7.34
2018-12-19T04:22:39.423Z,7.35
2018-12-19T04:23:39.430Z,7.34
2018-12-19T04:24:39.513Z,7.35
2018-12-19T04:26:39.509Z,7.34
2018-12-19T04:27:39.476Z,7.31
2018-12-19T04:28:39.486Z,7.34
2018-12-19T04:29:39.509Z,7.30
2018-12-19T04:30:39.510Z,7.30
2018-12-19T04:31:39.520Z,7.31
2018-12-19T04:32:39.530Z,7.25
2018-12-19T04:33:39.555Z,7.27
2018-12-19T04:34:39.551Z,7.21
2018-12-19T04:35:39.560Z,7.16
2018-12-19T04:36:39.576Z,7.20
2018-12-19T04:37:39.599Z,7.20
2018-12-19T04:38:39.602Z,7.25
2018-12-19T04:39:39.610Z,7.17
2018-12-19T04:40:39.621Z,7.23
2018-12-19T04:41:39.630Z,7.21
2018-12-19T04:42:39.644Z,7.21
2018-12-19T04:43:39.654Z,7.21
2018-12-19T04:44:39.663Z,7.21
2018-12-19T04:45:39.678Z,7.20
2018-12-19T04:46:39.689Z,7.21
2018-12-19T04:47:39.696Z,7.25
2018-12-19T04:48:39.716Z,7.27
2018-12-19T04:49:39.733Z,7.17
2018-12-19T04:50:39.732Z,7.16
2018-12-19T04:51:39.741Z,7.21
2018-12-19T04:52:39.755Z,7.17
2018-12-19T04:53:39.765Z,7.17
2018-12-19T04:54:39.779Z,7.10
2018-12-19T04:55:39.793Z,7.21
2018-12-19T04:56:39.797Z,7.16
2018-12-19T04:57:39.809Z,7.21
2018-12-19T04:58:39.823Z,7.16
2018-12-19T04:59:39.832Z,7.10
2018-12-19T05:00:39.846Z,7.23
2018-12-19T05:01:39.855Z,7.15
2018-12-19T05:02:39.866Z,7.12
2018-12-19T05:03:39.882Z,7.21
2018-12-19T05:04:39.888Z,7.24
2018-12-19T05:05:39.930Z,7.21
2018-12-19T05:06:39.907Z,7.10
2018-12-19T05:07:39.918Z,7.15
2018-12-19T05:08:39.933Z,7.13
2018-12-19T05:09:39.940Z,7.07
2018-12-19T05:10:39.952Z,7.06
2018-12-19T05:11:39.964Z,7.13
2018-12-19T05:12:39.996Z,7.13
2018-12-19T05:13:39.986Z,7.12
2018-12-19T05:14:39.998Z,7.05
2018-12-19T05:15:40.006Z,7.15
2018-12-19T05:16:40.083Z,7.07
2018-12-19T05:17:40.159Z,7.05
2018-12-19T05:18:40.044Z,7.05
2018-12-19T05:19:40.069Z,7.02
2018-12-19T05:20:40.061Z,7.06
2018-12-19T05:21:40.526Z,7.06
2018-12-19T05:22:40.083Z,6.99
2018-12-19T05:23:40.101Z,6.99
2018-12-19T05:24:40.108Z,6.99
2018-12-19T05:25:40.116Z,7.05
2018-12-19T05:26:40.146Z,7.02
2018-12-19T05:27:40.152Z,7.07
2018-12-19T05:28:40.231Z,6.99
2018-12-19T05:29:40.161Z,7.02
2018-12-19T05:30:40.181Z,6.95
2018-12-19T05:31:40.184Z,6.99
2018-12-19T05:32:40.196Z,6.98
2018-12-19T05:33:40.222Z,7.02
2018-12-19T05:34:40.234Z,6.95
2018-12-19T05:35:40.244Z,7.05
2018-12-19T05:36:40.251Z,7.05
2018-12-19T05:37:40.255Z,6.89
2018-12-19T05:38:40.261Z,6.98
2018-12-19T05:39:40.272Z,6.97
2018-12-19T05:40:40.282Z,6.91
2018-12-19T05:41:40.314Z,6.95
2018-12-19T05:42:40.313Z,6.89
2018-12-19T05:43:40.313Z,6.97
2018-12-19T05:44:40.340Z,6.91
2018-12-19T05:45:40.341Z,6.88
2018-12-19T05:46:40.358Z,6.97
2018-12-19T05:47:40.368Z,6.94
2018-12-19T05:48:40.383Z,6.89
2018-12-19T05:49:40.395Z,6.95
2018-12-19T05:50:40.399Z,6.95
2018-12-19T05:51:40.405Z,6.94
2018-12-19T05:52:40.432Z,6.95
2018-12-19T05:53:40.433Z,7.02
2018-12-19T05:54:40.448Z,6.92
2018-12-19T05:55:40.451Z,6.99
2018-12-19T05:56:40.471Z,6.99
2018-12-19T05:57:40.473Z,7.05
2018-12-19T05:58:40.487Z,7.03
2018-12-19T05:59:40.502Z,7.03
2018-12-19T06:00:40.602Z,7.02
2018-12-19T06:01:40.519Z,7.05
2018-12-19T06:02:40.591Z,7.06
2018-12-19T06:03:40.570Z,7.05
2018-12-19T06:04:40.555Z,7.12
2018-12-19T06:05:40.560Z,7.13
2018-12-19T06:06:40.602Z,7.12
2018-12-19T06:07:40.588Z,7.10
2018-12-19T06:08:40.620Z,7.21
2018-12-19T06:09:40.609Z,7.23
2018-12-19T06:10:40.621Z,7.28
2018-12-19T06:11:40.659Z,7.42
2018-12-19T06:12:40.640Z,7.49
2018-12-19T06:13:40.662Z,7.50
2018-12-19T06:14:40.684Z,7.52
2018-12-19T06:15:40.671Z,7.58
2018-12-19T06:16:40.707Z,7.60
2018-12-19T06:17:40.702Z,7.68
2018-12-19T06:18:40.704Z,7.71
2018-12-19T06:19:40.721Z,7.74
2018-12-19T06:20:40.726Z,7.72
2018-12-19T06:21:40.771Z,7.83
2018-12-19T06:22:40.767Z,7.82
2018-12-19T06:23:40.773Z,7.82
2018-12-19T06:24:40.775Z,7.80
2018-12-19T06:25:40.784Z,7.79
2018-12-19T06:26:40.815Z,7.82
2018-12-19T06:27:40.808Z,7.77
2018-12-19T06:28:40.886Z,7.83
2018-12-19T06:29:40.828Z,7.86
2018-12-19T06:30:40.855Z,7.89
2018-12-19T06:31:40.849Z,7.93
2018-12-19T06:32:40.882Z,7.87
2018-12-19T06:33:40.874Z,7.92
2018-12-19T06:34:40.884Z,7.82
2018-12-19T06:35:40.897Z,7.82
2018-12-19T06:36:40.931Z,7.93
2018-12-19T06:37:40.931Z,7.83
2018-12-19T06:38:40.931Z,7.87
2018-12-19T06:39:40.938Z,7.85
2018-12-19T06:40:40.994Z,7.87
2018-12-19T06:41:40.968Z,7.89
2018-12-19T06:42:40.980Z,7.87
2018-12-19T06:43:41.094Z,7.90
2018-12-19T06:44:41.007Z,7.87
2018-12-19T06:45:41.005Z,7.87
2018-12-19T06:46:41.038Z,7.87
2018-12-19T06:47:41.033Z,7.92
2018-12-19T06:48:41.041Z,7.86
2018-12-19T06:49:41.058Z,7.89
2018-12-19T06:50:41.063Z,7.89
2018-12-19T06:51:41.074Z,7.89
2018-12-19T06:52:41.106Z,7.89
2018-12-19T06:53:41.115Z,7.95
2018-12-19T06:54:41.115Z,7.95
2018-12-19T06:55:41.124Z,8.00
2018-12-19T06:56:41.144Z,7.95
2018-12-19T06:57:41.143Z,7.92
2018-12-19T06:58:41.155Z,7.90
2018-12-19T06:59:41.175Z,7.98
2018-12-19T07:00:41.177Z,7.95
2018-12-19T07:01:41.186Z,8.01
2018-12-19T07:02:41.199Z,7.90
2018-12-19T07:03:41.215Z,7.97
2018-12-19T07:04:41.230Z,7.90
2018-12-19T07:05:41.232Z,7.97
2018-12-19T07:06:41.310Z,7.93
2018-12-19T07:07:41.254Z,7.93
2018-12-19T07:08:41.553Z,8.00
2018-12-19T07:09:41.272Z,7.92
2018-12-19T07:10:41.306Z,7.95
2018-12-19T07:11:41.316Z,7.98
2018-12-19T07:12:41.332Z,7.97
2018-12-19T07:13:41.329Z,7.93
2018-12-19T07:14:41.343Z,7.93
2018-12-19T07:15:41.344Z,8.00
2018-12-19T07:16:43.594Z,7.92
2018-12-19T07:17:41.365Z,7.92
2018-12-19T07:18:41.377Z,7.95
2018-12-19T07:19:41.389Z,7.95
2018-12-19T07:20:41.400Z,7.97
2018-12-19T07:21:41.500Z,7.92
2018-12-19T07:22:41.423Z,7.90
2018-12-19T07:23:41.435Z,7.93
2018-12-19T07:24:41.444Z,7.97
2018-12-19T07:25:41.457Z,7.90
2018-12-19T07:26:41.465Z,7.92
2018-12-19T07:27:41.496Z,7.95
2018-12-19T07:28:41.495Z,7.90
2018-12-19T07:29:41.514Z,7.97
2018-12-19T07:30:41.514Z,8.00
2018-12-19T07:31:41.638Z,7.92
2018-12-19T07:32:41.546Z,7.98
2018-12-19T07:33:43.039Z,7.95
2018-12-19T07:34:44.387Z,7.92
2018-12-19T07:35:41.565Z,7.89
2018-12-19T07:36:41.579Z,8.00
2018-12-19T07:37:41.588Z,7.97
2018-12-19T07:38:41.603Z,7.95
2018-12-19T07:39:41.697Z,7.98
2018-12-19T07:40:45.711Z,7.92
2018-12-19T07:41:41.679Z,7.90
2018-12-19T07:42:41.645Z,7.90
2018-12-19T07:43:41.653Z,7.95
2018-12-19T07:44:41.680Z,7.95
2018-12-19T07:45:41.778Z,7.93
2018-12-19T07:46:41.703Z,7.92
2018-12-19T07:47:41.710Z,7.93
2018-12-19T07:48:41.734Z,7.93
2018-12-19T07:49:41.742Z,7.95
2018-12-19T07:50:41.743Z,7.89
2018-12-19T07:51:41.757Z,7.87
2018-12-19T07:52:41.766Z,7.89
2018-12-19T07:53:41.781Z,7.90
2018-12-19T07:54:41.782Z,7.92
2018-12-19T07:55:41.803Z,7.90
2018-12-19T07:56:41.812Z,7.92
2018-12-19T07:57:41.818Z,7.90
2018-12-19T07:58:41.826Z,7.86
2018-12-19T07:59:41.839Z,7.82
2018-12-19T08:00:41.877Z,7.83
2018-12-19T08:01:41.890Z,7.89
2018-12-19T08:02:41.909Z,7.93
2018-12-19T08:03:41.889Z,7.92
2018-12-19T08:04:41.901Z,7.86
2018-12-19T08:05:41.909Z,7.90
2018-12-19T08:07:41.927Z,7.87
2018-12-19T08:08:41.948Z,7.87
2018-12-19T08:09:41.948Z,7.87
2018-12-19T08:10:41.989Z,7.86
2018-12-19T08:11:41.973Z,7.90
2018-12-19T08:12:41.992Z,7.92
2018-12-19T08:14:42.704Z,7.89
2018-12-19T08:15:42.012Z,7.87
2018-12-19T08:16:42.095Z,7.87
2018-12-19T08:17:42.035Z,7.89
2018-12-19T08:18:42.052Z,7.90
2018-12-19T08:19:42.056Z,7.89
2018-12-19T08:20:42.073Z,7.89
2018-12-19T08:21:42.084Z,7.89
2018-12-19T08:22:42.097Z,7.87
2018-12-19T08:23:42.135Z,7.89
2018-12-19T08:24:42.135Z,7.87
2018-12-19T08:25:42.988Z,7.83
2018-12-19T08:26:42.153Z,7.89
2018-12-19T08:27:42.169Z,7.82
2018-12-19T08:28:42.161Z,7.85
2018-12-19T08:29:42.181Z,7.82
2018-12-19T08:30:42.198Z,7.85
2018-12-19T08:31:42.212Z,7.82
2018-12-19T08:32:42.205Z,7.86
2018-12-19T08:33:42.217Z,7.79
2018-12-19T08:34:42.235Z,7.82
2018-12-19T08:35:42.243Z,7.82
2018-12-19T08:36:42.251Z,7.89
2018-12-19T08:37:42.263Z,7.85
2018-12-19T08:38:42.288Z,7.82
2018-12-19T08:39:42.292Z,7.79
2018-12-19T08:40:42.293Z,7.82
2018-12-19T08:41:42.325Z,7.83
2018-12-19T08:42:42.351Z,7.85
2018-12-19T08:43:42.336Z,7.87
2018-12-19T08:44:42.336Z,7.83
2018-12-19T08:45:42.345Z,7.86
2018-12-19T08:46:42.375Z,7.85
2018-12-19T08:47:42.387Z,7.83
2018-12-19T08:48:42.382Z,7.82
2018-12-19T08:49:42.392Z,7.85
2018-12-19T08:50:42.404Z,7.83
2018-12-19T08:51:42.428Z,7.85
2018-12-19T08:52:42.427Z,7.85
2018-12-19T08:53:42.453Z,7.85
2018-12-19T08:54:42.454Z,7.85
2018-12-19T08:55:42.471Z,7.86
2018-12-19T08:56:42.543Z,7.79
2018-12-19T08:57:42.702Z,7.82
2018-12-19T08:58:42.494Z,7.80
2018-12-19T08:59:42.507Z,7.85
2018-12-19T09:00:42.515Z,7.82
2018-12-19T09:01:42.531Z,7.77
2018-12-19T09:02:42.549Z,7.80
2018-12-19T09:03:42.561Z,7.85
2018-12-19T09:04:42.567Z,7.83
2018-12-19T09:05:42.582Z,7.77
2018-12-19T09:06:42.587Z,7.85
2018-12-19T09:07:42.601Z,7.82
2018-12-19T09:08:42.656Z,7.79
2018-12-19T09:09:42.623Z,7.86
2018-12-19T09:10:42.629Z,7.77
2018-12-19T09:11:42.646Z,7.80
2018-12-19T09:12:42.672Z,7.85
2018-12-19T09:13:42.674Z,7.83
2018-12-19T09:14:42.675Z,7.85
2018-12-19T09:15:42.706Z,7.82
2018-12-19T09:16:42.699Z,7.90
2018-12-19T09:17:42.957Z,7.86
2018-12-19T09:18:42.767Z,7.92
2018-12-19T09:19:42.732Z,7.90
2018-12-19T09:20:42.748Z,7.89
2018-12-19T09:21:42.760Z,7.95
2018-12-19T09:22:42.768Z,7.93
2018-12-19T09:23:42.787Z,7.95
2018-12-19T09:24:42.787Z,7.97
2018-12-19T09:25:42.992Z,8.00
2018-12-19T09:26:42.816Z,8.01
2018-12-19T09:27:42.827Z,7.98
2018-12-19T09:28:42.908Z,7.97
2018-12-19T09:29:43.629Z,7.93
2018-12-19T09:30:43.904Z,8.00
2018-12-19T09:31:43.918Z,8.02
2018-12-19T09:32:42.971Z,7.97
2018-12-19T09:33:42.905Z,8.01
2018-12-19T09:34:42.905Z,8.07
2018-12-19T09:35:42.913Z,8.05
2018-12-19T09:36:42.928Z,8.18
2018-12-19T09:37:42.951Z,8.11
2018-12-19T09:38:42.949Z,8.08
2018-12-19T09:39:42.975Z,8.12
2018-12-19T09:40:42.970Z,8.12
2018-12-19T09:41:42.998Z,8.25
2018-12-19T09:42:43.030Z,8.12
2018-12-19T09:43:43.008Z,8.15
2018-12-19T09:44:43.018Z,8.16
2018-12-19T09:45:43.029Z,8.23
2018-12-19T09:46:43.044Z,8.19
2018-12-19T09:47:43.553Z,8.20
2018-12-19T09:48:43.126Z,8.23
2018-12-19T09:49:43.183Z,8.22
2018-12-19T09:50:43.086Z,8.28
2018-12-19T09:51:43.105Z,8.28
2018-12-19T09:52:43.107Z,8.36
2018-12-19T09:53:43.116Z,8.33
2018-12-19T09:54:43.144Z,8.38
2018-12-19T09:55:43.265Z,8.40
2018-12-19T09:56:43.155Z,8.40
2018-12-19T09:57:43.169Z,8.40
2018-12-19T09:58:43.178Z,8.44
2018-12-19T09:59:43.294Z,8.41
2018-12-19T10:00:43.201Z,8.45
2018-12-19T10:01:43.283Z,8.48
2018-12-19T10:02:43.300Z,8.58
2018-12-19T10:03:43.241Z,8.61
2018-12-19T10:04:43.251Z,8.62
2018-12-19T10:05:43.266Z,8.65
2018-12-19T10:06:43.270Z,8.62
2018-12-19T10:07:43.298Z,8.63
2018-12-19T10:08:43.298Z,8.66
2018-12-19T10:09:43.313Z,8.65
2018-12-19T10:10:43.330Z,8.58
2018-12-19T10:11:43.404Z,8.74
2018-12-19T10:12:43.352Z,8.61
2018-12-19T10:13:43.354Z,8.71
2018-12-19T10:14:43.371Z,8.68
2018-12-19T10:15:43.739Z,8.63
2018-12-19T10:16:43.408Z,8.76
2018-12-19T10:17:43.405Z,8.68
2018-12-19T10:18:43.414Z,8.80
2018-12-19T10:19:43.429Z,8.79
2018-12-19T10:20:43.437Z,8.79
2018-12-19T10:21:44.053Z,8.83
2018-12-19T10:22:43.462Z,8.89
2018-12-19T10:23:43.486Z,8.92
2018-12-19T10:24:43.496Z,8.89
2018-12-19T10:25:44.180Z,8.95
2018-12-19T10:26:43.527Z,8.95
2018-12-19T10:27:43.535Z,8.96
2018-12-19T10:28:43.532Z,9.05
2018-12-19T10:29:43.549Z,9.05
2018-12-19T10:30:43.559Z,9.05
2018-12-19T10:31:43.583Z,9.11
2018-12-19T10:32:43.586Z,8.99
2018-12-19T10:33:43.594Z,9.02
2018-12-19T10:34:43.618Z,8.99
2018-12-19T10:35:43.620Z,8.96
2018-12-19T10:36:43.640Z,9.01
2018-12-19T10:37:43.661Z,9.05
2018-12-19T10:38:43.657Z,9.11
2018-12-19T10:39:43.667Z,9.05
2018-12-19T10:40:43.681Z,9.04
2018-12-19T10:41:43.692Z,9.04
2018-12-19T10:42:43.717Z,8.99
2018-12-19T10:43:43.723Z,9.10
2018-12-19T10:44:43.729Z,9.10
2018-12-19T10:45:43.793Z,9.02
2018-12-19T10:46:43.766Z,9.13
2018-12-19T10:47:43.780Z,9.08
2018-12-19T10:48:43.783Z,9.11
2018-12-19T10:49:43.789Z,9.15
2018-12-19T10:50:43.844Z,9.14
2018-12-19T10:51:43.810Z,9.14
2018-12-19T10:52:43.824Z,9.05
2018-12-19T10:53:43.942Z,9.11
2018-12-19T10:54:43.849Z,9.10
2018-12-19T10:55:43.879Z,9.15
2018-12-19T10:56:43.876Z,9.14
2018-12-19T10:57:43.985Z,9.08
2018-12-19T10:58:43.896Z,9.14
2018-12-19T10:59:43.909Z,9.10
2018-12-19T11:00:43.919Z,9.24
2018-12-19T11:01:43.933Z,9.21
2018-12-19T11:02:43.947Z,9.14
2018-12-19T11:03:43.966Z,9.24
2018-12-19T11:04:43.983Z,9.28
2018-12-19T11:05:43.994Z,9.21
2018-12-19T11:06:43.994Z,9.18
2018-12-19T11:07:44.008Z,9.18
2018-12-19T11:08:44.020Z,9.20
2018-12-19T11:09:44.028Z,9.23
2018-12-19T11:10:45.148Z,9.17
2018-12-19T11:11:44.053Z,9.10
2018-12-19T11:12:44.064Z,9.18
2018-12-19T11:13:44.091Z,9.18
2018-12-19T11:14:44.093Z,9.18
2018-12-19T11:15:44.103Z,9.18
2018-12-19T11:16:44.832Z,9.05
2018-12-19T11:17:44.141Z,9.21
2018-12-19T11:18:44.237Z,9.15
2018-12-19T11:19:44.160Z,9.15
2018-12-19T11:20:44.166Z,9.28
2018-12-19T11:21:44.175Z,9.31
2018-12-19T11:22:44.197Z,9.23
2018-12-19T11:23:44.203Z,9.35
2018-12-19T11:24:44.219Z,9.36
2018-12-19T11:25:44.222Z,9.38
2018-12-19T11:26:44.265Z,9.42
2018-12-19T11:27:44.260Z,9.53
2018-12-19T11:28:44.260Z,9.50
2018-12-19T11:29:44.275Z,9.43
2018-12-19T11:30:44.288Z,9.42
2018-12-19T11:31:44.310Z,9.46
2018-12-19T11:32:44.311Z,9.54
2018-12-19T11:33:44.319Z,9.48
2018-12-19T11:34:44.339Z,9.50
2018-12-19T11:35:44.348Z,9.51
2018-12-19T11:36:44.380Z,9.51
2018-12-19T11:37:44.377Z,9.58
2018-12-19T11:38:44.384Z,9.53
2018-12-19T11:39:44.399Z,9.50
2018-12-19T11:40:44.409Z,9.48
2018-12-19T11:41:44.419Z,9.50
2018-12-19T11:42:44.435Z,9.50
2018-12-19T11:43:44.537Z,9.61
2018-12-19T11:44:44.459Z,9.46
2018-12-19T11:45:44.478Z,9.60
2018-12-19T11:46:44.485Z,9.54
2018-12-19T11:47:44.497Z,9.57
2018-12-19T11:48:44.534Z,9.65
2018-12-19T11:49:44.524Z,9.68
2018-12-19T11:50:44.537Z,9.58
2018-12-19T11:51:44.546Z,9.69
2018-12-19T11:52:44.559Z,9.69
2018-12-19T11:53:44.585Z,9.66
2018-12-19T11:54:44.583Z,9.69
2018-12-19T11:55:44.602Z,9.64
2018-12-19T11:56:44.611Z,9.69
2018-12-19T11:57:44.637Z,9.60
2018-12-19T11:58:44.654Z,9.50
2018-12-19T11:59:44.641Z,9.66
2018-12-19T12:00:44.662Z,9.69
2018-12-19T12:01:44.670Z,9.64
2018-12-19T12:02:44.691Z,9.68
2018-12-19T12:03:44.693Z,9.61
2018-12-19T12:04:44.704Z,9.68
2018-12-19T12:05:44.727Z,9.64
2018-12-19T12:06:44.735Z,9.68
2018-12-19T12:07:44.740Z,9.61
2018-12-19T12:08:44.759Z,9.74
2018-12-19T12:09:44.767Z,9.68
2018-12-19T12:10:44.787Z,9.72
2018-12-19T12:11:45.804Z,9.74
2018-12-19T12:12:44.806Z,9.71
2018-12-19T12:13:44.821Z,9.81
2018-12-19T12:14:44.940Z,9.75
2018-12-19T12:15:45.478Z,9.84
2018-12-19T12:17:44.869Z,9.74
2018-12-19T12:18:44.881Z,9.76
2018-12-19T12:19:44.926Z,9.74
2018-12-19T12:20:44.914Z,9.74
2018-12-19T12:21:44.935Z,9.75
2018-12-19T12:22:44.930Z,9.72
2018-12-19T12:23:47.395Z,9.78
2018-12-19T12:24:44.956Z,9.72
2018-12-19T12:25:44.972Z,9.75
2018-12-19T12:26:44.981Z,9.84
2018-12-19T12:27:44.996Z,9.83
2018-12-19T12:28:45.010Z,9.83
2018-12-19T12:29:45.019Z,9.79
2018-12-19T12:30:45.030Z,9.79
2018-12-19T12:31:45.056Z,9.79
2018-12-19T12:32:45.056Z,9.79
2018-12-19T12:33:45.067Z,9.81
2018-12-19T12:34:45.079Z,9.78
2018-12-19T12:35:45.109Z,9.83
2018-12-19T12:36:45.104Z,9.84
2018-12-19T12:37:45.130Z,9.81
2018-12-19T12:38:45.131Z,9.86
2018-12-19T12:39:45.154Z,9.78
2018-12-19T12:40:45.165Z,9.79
2018-12-19T12:41:45.185Z,9.86
2018-12-19T12:42:45.187Z,9.79
2018-12-19T12:43:45.192Z,9.84
2018-12-19T12:44:45.207Z,9.78
2018-12-19T12:45:45.215Z,9.89
2018-12-19T12:46:45.233Z,9.83
2018-12-19T12:47:45.244Z,9.84
2018-12-19T12:48:45.254Z,9.79
2018-12-19T12:49:45.274Z,9.75
2018-12-19T12:50:45.282Z,9.83
2018-12-19T12:51:45.291Z,9.78
2018-12-19T12:52:45.315Z,9.78
2018-12-19T12:53:45.319Z,9.74
2018-12-19T12:54:45.336Z,9.78
2018-12-19T12:55:45.352Z,9.89
2018-12-19T12:56:45.368Z,9.87
2018-12-19T12:57:45.409Z,9.84
2018-12-19T12:58:45.382Z,9.75
2018-12-19T12:59:45.391Z,9.81
2018-12-19T13:00:45.405Z,9.74
2018-12-19T13:01:45.416Z,9.81
2018-12-19T13:02:45.427Z,9.74
2018-12-19T13:03:45.444Z,9.74
2018-12-19T13:04:45.452Z,9.84
2018-12-19T13:05:45.478Z,9.76
2018-12-19T13:06:45.481Z,9.76
2018-12-19T13:07:45.494Z,9.83
2018-12-19T13:08:45.502Z,9.78
2018-12-19T13:09:45.515Z,9.79
2018-12-19T13:10:45.531Z,9.81
2018-12-19T13:11:45.547Z,9.79
2018-12-19T13:12:45.552Z,9.89
2018-12-19T13:13:45.568Z,9.78
2018-12-19T13:14:45.583Z,9.89
2018-12-19T13:15:45.914Z,9.79
2018-12-19T13:16:45.613Z,9.87
2018-12-19T13:17:45.617Z,9.84
2018-12-19T13:18:45.631Z,9.79
2018-12-19T13:19:45.647Z,9.79
2018-12-19T13:20:45.653Z,9.83
2018-12-19T13:21:45.668Z,9.89
2018-12-19T13:22:45.699Z,9.75
2018-12-19T13:23:45.689Z,9.93
2018-12-19T13:24:45.712Z,9.97